createdAt,value
2023-04-28T00:00:44.518Z,16.2
2023-04-28T00:01:46.496Z,16.2
2023-04-28T00:02:48.473Z,16.2
2023-04-28T00:03:51.187Z,16.2
2023-04-28T00:04:54.070Z,16.3
2023-04-28T00:05:56.794Z,16.3
2023-04-28T00:06:58.805Z,16.4
2023-04-28T00:08:00.652Z,16.3
2023-04-28T00:09:02.375Z,16.3
2023-04-28T00:10:04.353Z,16.3
2023-04-28T00:11:06.311Z,16.3
2023-04-28T00:12:08.195Z,16.4
2023-04-28T00:13:10.105Z,16.3
2023-04-28T00:14:11.944Z,16.4
2023-04-28T00:15:13.808Z,16.3
2023-04-28T00:16:15.766Z,16.3
2023-04-28T00:17:17.879Z,16.3
2023-04-28T00:18:20.051Z,16.4
2023-04-28T00:19:21.917Z,16.3
2023-04-28T00:20:23.773Z,16.3
2023-04-28T00:21:25.620Z,16.3
2023-04-28T00:22:27.472Z,16.3
2023-04-28T00:23:29.330Z,16.2
2023-04-28T00:24:31.070Z,16.3
2023-04-28T00:25:32.808Z,16.3
2023-04-28T00:26:34.671Z,16.2
2023-04-28T00:27:36.503Z,16.4
2023-04-28T00:28:38.273Z,16.2
2023-04-28T00:29:40.114Z,16.3
2023-04-28T00:30:41.862Z,16.3
2023-04-28T00:31:43.835Z,16.3
2023-04-28T00:32:46.122Z,16.2
2023-04-28T00:33:48.115Z,16.2
2023-04-28T00:34:49.978Z,16.3
2023-04-28T00:35:51.812Z,16.3
2023-04-28T00:36:53.579Z,16.3
2023-04-28T00:37:55.418Z,16.3
2023-04-28T00:38:57.260Z,16.4
2023-04-28T00:39:59.025Z,16.3
2023-04-28T00:41:00.896Z,16.3
2023-04-28T00:42:02.722Z,16.4
2023-04-28T00:43:04.581Z,16.2
2023-04-28T00:44:06.521Z,16.3
2023-04-28T00:45:08.378Z,16.4
2023-04-28T00:46:10.319Z,16.3
2023-04-28T00:47:12.462Z,16.2
2023-04-28T00:48:14.361Z,16.3
2023-04-28T00:49:16.293Z,16.3
2023-04-28T00:50:18.042Z,16.4
2023-04-28T00:51:19.767Z,16.4
2023-04-28T00:52:21.532Z,16.3
2023-04-28T00:53:23.385Z,16.4
2023-04-28T00:54:25.308Z,16.2
2023-04-28T00:55:27.067Z,16.3
2023-04-28T00:56:28.930Z,16.3
2023-04-28T00:57:30.768Z,16.2
2023-04-28T00:58:32.629Z,16.3
2023-04-28T00:59:34.484Z,16.4
2023-04-28T01:00:36.427Z,16.3
2023-04-28T01:01:38.729Z,16.3
2023-04-28T01:02:41.040Z,16.3
2023-04-28T01:03:43.586Z,16.2
2023-04-28T01:04:46.296Z,16.2
2023-04-28T01:05:48.348Z,16.3
2023-04-28T01:06:50.196Z,16.3
2023-04-28T01:07:52.018Z,16.4
2023-04-28T01:08:53.893Z,16.4
2023-04-28T01:09:55.752Z,16.4
2023-04-28T01:10:57.695Z,16.2
2023-04-28T01:11:59.552Z,16.2
2023-04-28T01:13:01.415Z,16.4
2023-04-28T01:14:03.243Z,16.3
2023-04-28T01:15:05.298Z,16.3
2023-04-28T01:16:07.248Z,16.4
2023-04-28T01:17:09.318Z,16.3
2023-04-28T01:18:11.207Z,16.3
2023-04-28T01:19:13.231Z,16.4
2023-04-28T01:20:15.178Z,16.2
2023-04-28T01:21:17.137Z,16.2
2023-04-28T01:22:18.981Z,16.3
2023-04-28T01:23:20.819Z,16.2
2023-04-28T01:24:22.539Z,16.3
2023-04-28T01:25:24.418Z,16.3
2023-04-28T01:26:26.239Z,16.3
2023-04-28T01:27:28.610Z,16.4
2023-04-28T01:28:30.569Z,16.4
2023-04-28T01:29:32.418Z,16.3
2023-04-28T01:30:34.386Z,16.3
2023-04-28T01:31:36.262Z,16.2
2023-04-28T01:32:38.208Z,16.3
2023-04-28T01:33:40.060Z,16.3
2023-04-28T01:34:41.908Z,16.2
2023-04-28T01:35:43.845Z,16.2
2023-04-28T01:36:45.797Z,16.3
2023-04-28T01:37:47.744Z,16.3
2023-04-28T01:38:49.593Z,16.2
2023-04-28T01:39:51.434Z,16.3
2023-04-28T01:40:53.285Z,16.3
2023-04-28T01:41:55.233Z,16.3
2023-04-28T01:42:56.995Z,16.4
2023-04-28T01:43:58.857Z,16.2
2023-04-28T01:45:00.668Z,16.3
2023-04-28T01:46:02.603Z,16.3
2023-04-28T01:47:04.789Z,16.3
2023-04-28T01:48:06.982Z,16.3
2023-04-28T01:49:08.903Z,16.3
2023-04-28T01:50:10.783Z,16.4
2023-04-28T01:51:12.586Z,16.3
2023-04-28T01:52:14.464Z,16.3
2023-04-28T01:53:16.617Z,16.3
2023-04-28T01:54:19.088Z,16.2
2023-04-28T01:55:21.032Z,16.3
2023-04-28T01:56:22.771Z,16.3
2023-04-28T01:57:24.640Z,16.4
2023-04-28T01:58:26.805Z,16.3
2023-04-28T01:59:28.751Z,16.3
2023-04-28T02:00:30.601Z,16.2
2023-04-28T02:01:32.550Z,16.4
2023-04-28T02:02:34.607Z,16.2
2023-04-28T02:03:37.083Z,16.3
2023-04-28T02:04:39.524Z,16.2
2023-04-28T02:05:41.501Z,16.2
2023-04-28T02:06:45.933Z,16.2
2023-04-28T02:07:47.718Z,16.3
2023-04-28T02:08:49.474Z,16.2
2023-04-28T02:09:51.214Z,16.2
2023-04-28T02:10:53.074Z,16.3
2023-04-28T02:11:54.937Z,16.3
2023-04-28T02:12:56.794Z,16.3
2023-04-28T02:13:58.737Z,16.4
2023-04-28T02:15:00.586Z,16.3
2023-04-28T02:16:02.615Z,16.3
2023-04-28T02:17:04.681Z,16.2
2023-04-28T02:18:06.482Z,16.2
2023-04-28T02:19:08.393Z,16.3
2023-04-28T02:20:10.341Z,16.2
2023-04-28T02:21:14.981Z,16.2
2023-04-28T02:22:16.803Z,16.3
2023-04-28T02:23:18.651Z,16.3
2023-04-28T02:24:20.514Z,16.2
2023-04-28T02:25:22.355Z,16.2
2023-04-28T02:26:24.209Z,16.2
2023-04-28T02:27:26.029Z,16.2
2023-04-28T02:28:27.901Z,16.2
2023-04-28T02:29:29.657Z,16.2
2023-04-28T02:30:31.607Z,16.2
2023-04-28T02:31:33.657Z,16.2
2023-04-28T02:32:35.915Z,16.2
2023-04-28T02:33:37.996Z,16.2
2023-04-28T02:34:39.828Z,16.2
2023-04-28T02:35:41.883Z,16.2
2023-04-28T02:36:43.771Z,16.2
2023-04-28T02:37:45.590Z,16.2
2023-04-28T02:38:47.431Z,16.2
2023-04-28T02:39:49.380Z,16.2
2023-04-28T02:40:51.332Z,16.2
2023-04-28T02:41:53.186Z,16.2
2023-04-28T02:42:55.091Z,16.2
2023-04-28T02:43:56.894Z,16.2
2023-04-28T02:44:58.630Z,16.2
2023-04-28T02:46:00.598Z,16.2
2023-04-28T02:47:02.711Z,16.2
2023-04-28T02:48:04.824Z,16.2
2023-04-28T02:49:06.755Z,16.2
2023-04-28T02:50:08.694Z,16.2
2023-04-28T02:51:10.556Z,16.3
2023-04-28T02:52:12.461Z,16.3
2023-04-28T02:53:14.269Z,16.3
2023-04-28T02:54:16.661Z,16.2
2023-04-28T02:55:18.953Z,16.2
2023-04-28T02:56:20.703Z,16.3
2023-04-28T02:57:22.609Z,16.2
2023-04-28T02:58:24.428Z,16.3
2023-04-28T02:59:26.270Z,16.2
2023-04-28T03:00:28.117Z,16.2
2023-04-28T03:01:30.096Z,16.2
2023-04-28T03:02:32.303Z,16.3
2023-04-28T03:03:34.701Z,16.2
2023-04-28T03:04:36.969Z,16.4
2023-04-28T03:05:38.911Z,16.4
2023-04-28T03:06:40.630Z,16.4
2023-04-28T03:07:42.432Z,16.4
2023-04-28T03:08:44.169Z,16.5
2023-04-28T03:09:46.007Z,16.5
2023-04-28T03:10:47.861Z,16.5
2023-04-28T03:11:49.818Z,16.5
2023-04-28T03:12:51.643Z,16.5
2023-04-28T03:13:53.397Z,16.5
2023-04-28T03:14:58.094Z,16.5
2023-04-28T03:15:59.981Z,16.5
2023-04-28T03:17:02.029Z,16.5
2023-04-28T03:18:03.942Z,16.6
2023-04-28T03:19:06.037Z,16.6
2023-04-28T03:20:07.996Z,16.6
2023-04-28T03:21:09.845Z,16.6
2023-04-28T03:22:11.791Z,16.6
2023-04-28T03:23:13.679Z,16.6
2023-04-28T03:24:15.910Z,16.5
2023-04-28T03:25:18.764Z,16.6
2023-04-28T03:26:20.496Z,16.5
2023-04-28T03:27:22.389Z,16.6
2023-04-28T03:28:24.223Z,16.5
2023-04-28T03:29:26.071Z,16.5
2023-04-28T03:30:27.903Z,16.6
2023-04-28T03:31:29.781Z,16.5
2023-04-28T03:32:31.755Z,16.5
2023-04-28T03:33:33.675Z,16.5
2023-04-28T03:34:35.530Z,16.5
2023-04-28T03:35:37.278Z,16.6
2023-04-28T03:36:39.124Z,16.5
2023-04-28T03:37:41.078Z,16.5
2023-04-28T03:38:42.956Z,16.6
2023-04-28T03:39:44.767Z,16.5
2023-04-28T03:40:46.722Z,16.6
2023-04-28T03:41:48.570Z,16.6
2023-04-28T03:42:50.425Z,16.6
2023-04-28T03:43:52.282Z,16.5
2023-04-28T03:44:54.226Z,16.5
2023-04-28T03:45:56.149Z,16.5
2023-04-28T03:46:57.931Z,16.5
2023-04-28T03:47:59.914Z,16.5
2023-04-28T03:49:01.940Z,16.5
2023-04-28T03:50:03.947Z,16.5
2023-04-28T03:51:05.748Z,16.5
2023-04-28T03:52:07.706Z,16.5
2023-04-28T03:53:09.546Z,16.6
2023-04-28T03:54:11.310Z,16.5
2023-04-28T03:55:13.248Z,16.6
2023-04-28T03:56:15.209Z,16.6
2023-04-28T03:57:19.917Z,16.6
2023-04-28T03:58:21.654Z,16.5
2023-04-28T03:59:23.400Z,16.6
2023-04-28T04:00:25.353Z,16.5
2023-04-28T04:01:28.228Z,16.5
2023-04-28T04:02:30.343Z,16.7
2023-04-28T04:03:32.944Z,16.6
2023-04-28T04:04:36.126Z,16.6
2023-04-28T04:05:38.809Z,16.6
2023-04-28T04:06:40.764Z,16.6
2023-04-28T04:07:42.616Z,16.5
2023-04-28T04:08:44.477Z,16.6
2023-04-28T04:09:46.275Z,16.7
2023-04-28T04:10:48.157Z,16.6
2023-04-28T04:11:49.922Z,16.7
2023-04-28T04:12:54.828Z,16.6
2023-04-28T04:13:56.800Z,16.5
2023-04-28T04:14:58.645Z,16.6
2023-04-28T04:16:00.633Z,16.8
2023-04-28T04:17:02.650Z,16.7
2023-04-28T04:18:04.602Z,16.7
2023-04-28T04:19:06.445Z,16.7
2023-04-28T04:20:08.290Z,16.7
2023-04-28T04:21:10.111Z,16.7
2023-04-28T04:22:11.889Z,16.7
2023-04-28T04:23:13.743Z,16.7
2023-04-28T04:24:16.235Z,16.7
2023-04-28T04:25:19.287Z,16.6
2023-04-28T04:26:24.797Z,16.6
2023-04-28T04:27:26.698Z,16.8
2023-04-28T04:28:28.524Z,16.8
2023-04-28T04:29:30.273Z,16.8
2023-04-28T04:30:32.161Z,16.9
2023-04-28T04:31:34.168Z,16.8
2023-04-28T04:32:36.238Z,16.8
2023-04-28T04:33:38.078Z,16.8
2023-04-28T04:34:39.994Z,16.8
2023-04-28T04:35:41.882Z,16.8
2023-04-28T04:36:43.833Z,16.8
2023-04-28T04:37:45.616Z,16.7
2023-04-28T04:38:47.421Z,16.7
2023-04-28T04:39:49.281Z,16.5
2023-04-28T04:40:51.146Z,16.5
2023-04-28T04:41:52.983Z,16.4
2023-04-28T04:42:54.829Z,16.2
2023-04-28T04:43:56.682Z,16
2023-04-28T04:44:58.622Z,16.1
2023-04-28T04:46:00.484Z,16.1
2023-04-28T04:47:02.442Z,16
2023-04-28T04:48:04.410Z,16.2
2023-04-28T04:49:06.229Z,16
2023-04-28T04:50:08.192Z,16
2023-04-28T04:51:10.047Z,16
2023-04-28T04:52:11.771Z,16
2023-04-28T04:53:16.680Z,15.9
2023-04-28T04:54:18.582Z,15.8
2023-04-28T04:55:20.512Z,15.8
2023-04-28T04:56:22.403Z,15.8
2023-04-28T04:57:24.215Z,15.9
2023-04-28T04:58:25.973Z,15.9
2023-04-28T04:59:27.937Z,15.8
2023-04-28T05:00:29.864Z,15.8
2023-04-28T05:01:32.455Z,15.8
2023-04-28T05:02:34.833Z,15.8
2023-04-28T05:03:37.557Z,15.8
2023-04-28T05:04:40.201Z,15.9
2023-04-28T05:05:46.037Z,15.8
2023-04-28T05:06:48.115Z,15.8
2023-04-28T05:07:49.981Z,15.8
2023-04-28T05:08:51.848Z,15.7
2023-04-28T05:09:53.706Z,15.9
2023-04-28T05:10:55.550Z,15.9
2023-04-28T05:11:57.425Z,15.9
2023-04-28T05:12:59.220Z,15.9
2023-04-28T05:14:01.092Z,15.9
2023-04-28T05:15:02.934Z,15.9
2023-04-28T05:16:04.777Z,15.8
2023-04-28T05:17:06.641Z,15.9
2023-04-28T05:18:08.652Z,16
2023-04-28T05:19:10.655Z,16
2023-04-28T05:20:13.180Z,16
2023-04-28T05:21:15.174Z,16.1
2023-04-28T05:22:17.331Z,16
2023-04-28T05:23:19.383Z,16
2023-04-28T05:24:21.224Z,16
2023-04-28T05:25:22.999Z,16
2023-04-28T05:26:25.038Z,16.2
2023-04-28T05:27:27.769Z,16.1
2023-04-28T05:28:32.524Z,16.1
2023-04-28T05:29:34.448Z,16.1
2023-04-28T05:30:36.402Z,16
2023-04-28T05:31:38.297Z,16
2023-04-28T05:32:40.356Z,16.1
2023-04-28T05:33:42.197Z,16
2023-04-28T05:34:44.024Z,16.3
2023-04-28T05:35:45.830Z,16.2
2023-04-28T05:36:47.749Z,16
2023-04-28T05:37:49.794Z,16
2023-04-28T05:38:51.667Z,16
2023-04-28T05:39:53.478Z,15.8
2023-04-28T05:40:55.238Z,15.9
2023-04-28T05:41:57.084Z,15.9
2023-04-28T05:42:58.947Z,16
2023-04-28T05:44:00.901Z,15.9
2023-04-28T05:45:02.870Z,15.7
2023-04-28T05:46:18.597Z,15.6
2023-04-28T05:47:33.004Z,15.5
2023-04-28T05:48:34.989Z,15.6
2023-04-28T05:49:37.080Z,15.4
2023-04-28T05:50:39.446Z,15.6
2023-04-28T05:51:41.373Z,15.6
2023-04-28T05:52:43.160Z,15.6
2023-04-28T05:53:44.875Z,15.6
2023-04-28T05:54:47.136Z,15.8
2023-04-28T05:55:48.928Z,15.7
2023-04-28T05:56:50.835Z,15.7
2023-04-28T05:57:53.927Z,15.6
2023-04-28T05:58:55.762Z,15.4
2023-04-28T05:59:57.557Z,15.4
2023-04-28T06:00:59.296Z,15.4
2023-04-28T06:02:01.235Z,15.4
2023-04-28T06:03:03.656Z,15.4
2023-04-28T06:04:06.809Z,15.4
2023-04-28T06:05:10.159Z,15.4
2023-04-28T06:06:12.961Z,15.3
2023-04-28T06:07:15.276Z,15.3
2023-04-28T06:08:17.262Z,15.3
2023-04-28T06:09:19.385Z,15.3
2023-04-28T06:10:21.150Z,15.3
2023-04-28T06:11:23.083Z,15.3
2023-04-28T06:12:25.047Z,15.2
2023-04-28T06:13:27.488Z,15.2
2023-04-28T06:14:29.586Z,15.3
2023-04-28T06:15:31.400Z,15.2
2023-04-28T06:16:33.427Z,15.5
2023-04-28T06:17:35.492Z,15.5
2023-04-28T06:18:37.431Z,15.5
2023-04-28T06:19:39.319Z,15.4
2023-04-28T06:20:41.132Z,15.3
2023-04-28T06:21:42.994Z,15.6
2023-04-28T06:22:44.664Z,15.4
2023-04-28T06:23:46.499Z,15.5
2023-04-28T06:24:48.361Z,15.5
2023-04-28T06:25:50.318Z,15.5
2023-04-28T06:26:52.160Z,15.6
2023-04-28T06:27:54.036Z,15.5
2023-04-28T06:28:55.877Z,15.5
2023-04-28T06:29:57.735Z,15.5
2023-04-28T06:30:59.677Z,15.5
2023-04-28T06:32:01.847Z,15.5
2023-04-28T06:33:04.190Z,15.6
2023-04-28T06:34:06.035Z,15.6
2023-04-28T06:35:07.857Z,15.6
2023-04-28T06:36:09.730Z,15.6
2023-04-28T06:37:11.590Z,15.5
2023-04-28T06:38:13.449Z,15.4
2023-04-28T06:39:15.295Z,15.5
2023-04-28T06:40:17.248Z,15.4
2023-04-28T06:41:19.254Z,15.4
2023-04-28T06:42:21.061Z,15.4
2023-04-28T06:43:22.811Z,15.5
2023-04-28T06:44:24.647Z,15.6
2023-04-28T06:45:26.474Z,15.4
2023-04-28T06:46:28.557Z,15.3
2023-04-28T06:47:31.552Z,15.1
2023-04-28T06:48:33.424Z,15
2023-04-28T06:49:35.217Z,15
2023-04-28T06:50:37.188Z,14.8
2023-04-28T06:51:38.859Z,14.8
2023-04-28T06:52:40.680Z,14.8
2023-04-28T06:53:42.510Z,14.8
2023-04-28T06:54:44.574Z,15
2023-04-28T06:55:46.460Z,15.3
2023-04-28T06:56:48.172Z,15.1
2023-04-28T06:57:50.024Z,14.9
2023-04-28T06:58:51.772Z,14.9
2023-04-28T06:59:53.727Z,15.4
2023-04-28T07:00:55.715Z,15.4
2023-04-28T07:01:57.977Z,15.3
2023-04-28T07:03:00.533Z,15.3
2023-04-28T07:04:03.795Z,15
2023-04-28T07:05:06.258Z,15.2
2023-04-28T07:06:08.253Z,15
2023-04-28T07:07:10.114Z,14.9
2023-04-28T07:08:12.344Z,14.9
2023-04-28T07:09:15.600Z,15
2023-04-28T07:10:17.512Z,15
2023-04-28T07:11:19.421Z,14.8
2023-04-28T07:12:21.405Z,14.8
2023-04-28T07:13:23.309Z,14.8
2023-04-28T07:14:25.466Z,14.7
2023-04-28T07:15:27.301Z,14.7
2023-04-28T07:16:29.548Z,14.6
2023-04-28T07:17:31.752Z,14.6
2023-04-28T07:18:33.686Z,14.6
2023-04-28T07:19:35.551Z,14.5
2023-04-28T07:20:37.431Z,15
2023-04-28T07:21:39.335Z,14.9
2023-04-28T07:22:41.187Z,14.8
2023-04-28T07:23:43.023Z,14.6
2023-04-28T07:24:44.729Z,14.6
2023-04-28T07:25:46.637Z,14.8
2023-04-28T07:26:48.489Z,15.1
2023-04-28T07:27:53.800Z,15
2023-04-28T07:28:55.636Z,15
2023-04-28T07:29:57.521Z,15
2023-04-28T07:30:59.774Z,15
2023-04-28T07:32:01.685Z,15
2023-04-28T07:33:03.908Z,15
2023-04-28T07:34:05.964Z,15.4
2023-04-28T07:35:08.213Z,15.1
2023-04-28T07:36:10.045Z,15
2023-04-28T07:37:12.031Z,15
2023-04-28T07:38:14.088Z,14.9
2023-04-28T07:39:16.007Z,14.9
2023-04-28T07:40:18.069Z,14.9
2023-04-28T07:41:20.118Z,14.9
2023-04-28T07:42:22.068Z,14.8
2023-04-28T07:43:23.929Z,14.7
2023-04-28T07:44:25.769Z,14.8
2023-04-28T07:45:27.533Z,14.8
2023-04-28T07:46:29.648Z,14.9
2023-04-28T07:47:31.862Z,14.9
2023-04-28T07:48:33.893Z,14.9
2023-04-28T07:49:35.642Z,14.9
2023-04-28T07:50:37.488Z,14.9
2023-04-28T07:51:39.279Z,14.8
2023-04-28T07:52:41.294Z,14.5
2023-04-28T07:53:43.091Z,14.6
2023-04-28T07:54:44.901Z,14.6
2023-04-28T07:55:46.737Z,14.5
2023-04-28T07:56:48.783Z,14.4
2023-04-28T07:57:50.753Z,14.7
2023-04-28T07:58:52.588Z,14.8
2023-04-28T07:59:54.441Z,15
2023-04-28T08:00:56.303Z,15
2023-04-28T08:01:58.281Z,14.9
2023-04-28T08:03:00.641Z,14.8
2023-04-28T08:04:03.348Z,14.6
2023-04-28T08:05:06.558Z,14.8
2023-04-28T08:06:09.373Z,14.9
2023-04-28T08:07:11.382Z,14.9
2023-04-28T08:08:13.236Z,15
2023-04-28T08:09:14.993Z,14.9
2023-04-28T08:10:16.950Z,15.1
2023-04-28T08:11:18.777Z,14.8
2023-04-28T08:12:20.549Z,15
2023-04-28T08:13:22.403Z,15.1
2023-04-28T08:14:24.260Z,15
2023-04-28T08:15:25.988Z,15
2023-04-28T08:16:28.013Z,14.9
2023-04-28T08:17:30.232Z,14.9
2023-04-28T08:18:32.779Z,14.8
2023-04-28T08:19:34.608Z,14.8
2023-04-28T08:20:36.411Z,14.8
2023-04-28T08:21:38.297Z,14.7
2023-04-28T08:22:40.170Z,14.7
2023-04-28T08:23:42.206Z,14.7
2023-04-28T08:24:44.064Z,14.7
2023-04-28T08:25:45.902Z,14.7
2023-04-28T08:26:47.764Z,14.7
2023-04-28T08:27:49.603Z,14.8
2023-04-28T08:28:51.552Z,14.7
2023-04-28T08:29:53.920Z,14.9
2023-04-28T08:30:55.921Z,14.7
2023-04-28T08:31:57.941Z,14.7
2023-04-28T08:32:59.918Z,14.7
2023-04-28T08:34:02.060Z,14.7
2023-04-28T08:35:03.987Z,14.7
2023-04-28T08:36:05.850Z,14.6
2023-04-28T08:37:07.804Z,14.5
2023-04-28T08:38:09.806Z,14.6
2023-04-28T08:39:13.924Z,14.6
2023-04-28T08:40:15.903Z,14.8
2023-04-28T08:41:17.745Z,14.9
2023-04-28T08:42:19.718Z,14.8
2023-04-28T08:43:21.706Z,14.7
2023-04-28T08:44:23.816Z,14.8
2023-04-28T08:45:28.556Z,14.7
2023-04-28T08:46:30.429Z,14.7
2023-04-28T08:47:32.676Z,14.8
2023-04-28T08:48:35.010Z,14.9
2023-04-28T08:49:36.842Z,14.8
2023-04-28T08:50:38.713Z,14.8
2023-04-28T08:51:42.412Z,14.9
2023-04-28T08:52:44.236Z,14.6
2023-04-28T08:54:25.197Z,14.8
2023-04-28T08:55:31.659Z,14.8
2023-04-28T08:56:33.426Z,14.7
2023-04-28T08:57:35.469Z,14.7
2023-04-28T08:58:37.414Z,14.7
2023-04-28T08:59:39.255Z,14.8
2023-04-28T09:00:41.033Z,14.9
2023-04-28T09:01:43.343Z,14.8
2023-04-28T09:02:45.622Z,14.7
2023-04-28T09:03:48.464Z,14.7
2023-04-28T09:04:51.871Z,14.8
2023-04-28T09:05:54.714Z,14.8
2023-04-28T09:06:56.600Z,14.8
2023-04-28T09:07:58.479Z,14.8
2023-04-28T09:09:00.329Z,14.7
2023-04-28T09:10:02.205Z,14.6
2023-04-28T09:11:04.045Z,14.6
2023-04-28T09:12:05.747Z,14.6
2023-04-28T09:13:07.719Z,14.6
2023-04-28T09:14:09.707Z,14.6
2023-04-28T09:15:11.681Z,14.6
2023-04-28T09:16:13.616Z,14.7
2023-04-28T09:17:16.540Z,14.8
2023-04-28T09:18:18.412Z,14.8
2023-04-28T09:19:20.366Z,14.7
2023-04-28T09:20:22.346Z,14.7
2023-04-28T09:21:24.284Z,14.8
2023-04-28T09:22:27.457Z,14.8
2023-04-28T09:23:29.364Z,14.8
2023-04-28T09:24:31.285Z,14.7
2023-04-28T09:25:33.216Z,14.6
2023-04-28T09:26:35.068Z,14.7
2023-04-28T09:27:36.908Z,14.7
2023-04-28T09:28:38.871Z,14.6
2023-04-28T09:29:40.636Z,14.6
2023-04-28T09:30:42.742Z,14.6
2023-04-28T09:31:44.756Z,14.5
2023-04-28T09:32:46.890Z,14.5
2023-04-28T09:33:48.936Z,14.5
2023-04-28T09:34:50.682Z,14.5
2023-04-28T09:35:52.502Z,14.6
2023-04-28T09:36:54.488Z,14.6
2023-04-28T09:37:56.440Z,14.5
2023-04-28T09:38:58.399Z,14.6
2023-04-28T09:40:00.342Z,14.6
2023-04-28T09:41:02.225Z,14.6
2023-04-28T09:42:04.088Z,14.6
2023-04-28T09:43:21.785Z,14.6
2023-04-28T09:44:24.124Z,14.5
2023-04-28T09:45:25.883Z,14.4
2023-04-28T09:46:28.392Z,14.4
2023-04-28T09:47:30.589Z,14.5
2023-04-28T09:48:32.555Z,14.5
2023-04-28T09:49:35.117Z,14.5
2023-04-28T09:50:37.113Z,14.6
2023-04-28T09:51:38.787Z,14.6
2023-04-28T09:52:40.671Z,14.7
2023-04-28T09:53:42.528Z,14.5
2023-04-28T09:54:44.335Z,14.4
2023-04-28T09:55:46.191Z,14.2
2023-04-28T09:56:48.808Z,14.3
2023-04-28T09:57:50.738Z,14.4
2023-04-28T09:58:52.471Z,14.6
2023-04-28T09:59:54.223Z,14.5
2023-04-28T10:00:56.218Z,14.4
2023-04-28T10:01:58.133Z,14.6
2023-04-28T10:03:00.208Z,14.7
2023-04-28T10:04:02.771Z,14.7
2023-04-28T10:05:05.381Z,14.6
2023-04-28T10:06:08.113Z,14.5
2023-04-28T10:07:09.815Z,14.6
2023-04-28T10:08:11.707Z,14.6
2023-04-28T10:09:13.539Z,14.7
2023-04-28T10:10:15.695Z,14.6
2023-04-28T10:11:17.668Z,14.7
2023-04-28T10:12:19.485Z,14.6
2023-04-28T10:13:21.365Z,14.6
2023-04-28T10:14:23.216Z,14.6
2023-04-28T10:15:24.960Z,14.5
2023-04-28T10:16:27.058Z,14.6
2023-04-28T10:17:29.624Z,14.7
2023-04-28T10:18:31.745Z,14.8
2023-04-28T10:19:33.579Z,14.6
2023-04-28T10:20:35.447Z,14.7
2023-04-28T10:21:37.386Z,14.7
2023-04-28T10:22:39.667Z,14.6
2023-04-28T10:23:41.394Z,14.4
2023-04-28T10:24:43.120Z,14.5
2023-04-28T10:25:44.897Z,14.4
2023-04-28T10:26:47.020Z,14.4
2023-04-28T10:27:48.931Z,14.5
2023-04-28T10:28:50.884Z,14.5
2023-04-28T10:29:52.820Z,14.5
2023-04-28T10:30:54.773Z,14.5
2023-04-28T10:31:56.730Z,14.4
2023-04-28T10:32:59.663Z,14.6
2023-04-28T10:34:01.853Z,14.6
2023-04-28T10:35:03.700Z,14.5
2023-04-28T10:36:05.647Z,14.6
2023-04-28T10:37:07.610Z,14.4
2023-04-28T10:38:09.465Z,14.5
2023-04-28T10:39:11.394Z,14.4
2023-04-28T10:40:13.657Z,14.4
2023-04-28T10:41:15.823Z,14.7
2023-04-28T10:42:17.672Z,14.5
2023-04-28T10:43:19.998Z,14.5
2023-04-28T10:44:21.872Z,14.4
2023-04-28T10:45:23.709Z,14.3
2023-04-28T10:46:25.829Z,14.5
2023-04-28T10:47:27.963Z,14.6
2023-04-28T10:48:29.987Z,14.5
2023-04-28T10:49:31.842Z,14.2
2023-04-28T10:50:39.489Z,14.2
2023-04-28T10:51:41.333Z,14.5
2023-04-28T10:52:43.257Z,14.3
2023-04-28T10:53:46.668Z,14.3
2023-04-28T10:54:49.381Z,14.5
2023-04-28T10:55:51.238Z,14.4
2023-04-28T10:56:53.091Z,14.4
2023-04-28T10:57:54.843Z,14.3
2023-04-28T10:58:56.699Z,14.4
2023-04-28T10:59:59.054Z,14.3
2023-04-28T11:01:01.696Z,14.4
2023-04-28T11:02:03.593Z,14.6
2023-04-28T11:03:06.130Z,14.5
2023-04-28T11:04:08.943Z,14.3
2023-04-28T11:05:11.827Z,14.4
2023-04-28T11:06:14.860Z,14.5
2023-04-28T11:07:16.813Z,14.3
2023-04-28T11:08:18.762Z,14.3
2023-04-28T11:09:20.705Z,14.3
2023-04-28T11:10:22.575Z,14.3
2023-04-28T11:11:24.899Z,14.2
2023-04-28T11:12:26.778Z,14.3
2023-04-28T11:13:29.306Z,14.3
2023-04-28T11:14:32.231Z,14.4
2023-04-28T11:15:34.391Z,14.1
2023-04-28T11:16:36.493Z,14.4
2023-04-28T11:17:38.434Z,14.3
2023-04-28T11:18:40.325Z,14.4
2023-04-28T11:19:42.186Z,14.4
2023-04-28T11:20:44.036Z,14.3
2023-04-28T11:21:45.891Z,14.2
2023-04-28T11:22:47.743Z,14.5
2023-04-28T11:23:49.647Z,14.6
2023-04-28T11:24:54.231Z,14.5
2023-04-28T11:25:55.928Z,14.6
2023-04-28T11:26:57.893Z,14.5
2023-04-28T11:27:59.841Z,14.3
2023-04-28T11:29:01.670Z,14.3
2023-04-28T11:30:03.682Z,14.3
2023-04-28T11:31:05.509Z,14.3
2023-04-28T11:32:07.662Z,14.3
2023-04-28T11:33:10.293Z,14.2
2023-04-28T11:34:13.279Z,14.2
2023-04-28T11:35:15.160Z,14.2
2023-04-28T11:36:17.010Z,14.3
2023-04-28T11:37:19.487Z,14.2
2023-04-28T11:38:21.586Z,14.1
2023-04-28T11:39:24.100Z,14.2
2023-04-28T11:40:26.029Z,14.1
2023-04-28T11:41:27.889Z,14.1
2023-04-28T11:42:29.738Z,14.3
2023-04-28T11:43:47.529Z,14.5
2023-04-28T11:44:49.598Z,14.3
2023-04-28T11:45:51.627Z,14.5
2023-04-28T11:46:53.753Z,14.4
2023-04-28T11:47:55.692Z,14.5
2023-04-28T11:48:58.046Z,14.5
2023-04-28T11:49:59.921Z,14.4
2023-04-28T11:51:01.684Z,14.5
2023-04-28T11:52:03.412Z,14.4
2023-04-28T11:53:05.229Z,14.4
2023-04-28T11:54:07.078Z,14.5
2023-04-28T11:55:08.905Z,14.4
2023-04-28T11:56:10.624Z,14.3
2023-04-28T11:57:12.432Z,14.3
2023-04-28T11:58:14.391Z,14.2
2023-04-28T11:59:16.342Z,14.4
2023-04-28T12:00:18.196Z,14.3
2023-04-28T12:01:19.943Z,14.2
2023-04-28T12:02:21.940Z,14.1
2023-04-28T12:03:24.502Z,14.1
2023-04-28T12:04:27.343Z,14.2
2023-04-28T12:05:29.504Z,14.2
2023-04-28T12:06:31.342Z,14.1
2023-04-28T12:07:33.298Z,14.1
2023-04-28T12:08:35.119Z,14
2023-04-28T12:09:36.909Z,14.2
2023-04-28T12:10:38.749Z,14.3
2023-04-28T12:11:40.757Z,14.2
2023-04-28T12:12:53.308Z,13.9
2023-04-28T12:13:55.341Z,14
2023-04-28T12:14:57.194Z,13.9
2023-04-28T12:15:59.157Z,13.8
2023-04-28T12:17:01.153Z,13.9
2023-04-28T12:18:02.857Z,13.9
2023-04-28T12:19:04.904Z,14
2023-04-28T12:20:07.768Z,13.8
2023-04-28T12:21:09.941Z,13.9
2023-04-28T12:22:11.746Z,13.9
2023-04-28T12:23:13.534Z,13.9
2023-04-28T12:24:15.423Z,13.9
2023-04-28T12:25:17.855Z,13.9
2023-04-28T12:26:19.804Z,13.9
2023-04-28T12:27:21.771Z,13.9
2023-04-28T12:28:23.712Z,13.9
2023-04-28T12:29:25.521Z,14
2023-04-28T12:30:27.531Z,14
2023-04-28T12:31:29.387Z,14
2023-04-28T12:32:31.530Z,14
2023-04-28T12:33:33.585Z,14
2023-04-28T12:34:35.727Z,13.9
2023-04-28T12:35:37.605Z,14
2023-04-28T12:36:39.428Z,13.8
2023-04-28T12:37:41.360Z,14
2023-04-28T12:38:43.226Z,14
2023-04-28T12:39:45.914Z,14
2023-04-28T12:40:48.762Z,13.8
2023-04-28T12:41:50.518Z,13.8
2023-04-28T12:42:52.481Z,13.9
2023-04-28T12:43:54.326Z,13.7
2023-04-28T12:44:56.145Z,13.8
2023-04-28T12:45:58.046Z,13.8
2023-04-28T12:46:59.982Z,13.6
2023-04-28T12:48:01.931Z,13.7
2023-04-28T12:49:04.002Z,13.7
2023-04-28T12:50:05.854Z,13.6
2023-04-28T12:51:08.195Z,13.6
2023-04-28T12:52:10.064Z,13.6
2023-04-28T12:53:11.895Z,13.7
2023-04-28T12:54:13.642Z,13.7
2023-04-28T12:55:15.604Z,13.5
2023-04-28T12:56:17.555Z,13.6
2023-04-28T12:57:19.303Z,13.7
2023-04-28T12:58:21.292Z,13.7
2023-04-28T12:59:23.102Z,13.7
2023-04-28T13:00:24.999Z,13.7
2023-04-28T13:01:27.127Z,13.6
2023-04-28T13:02:29.266Z,13.6
2023-04-28T13:03:31.795Z,13.5
2023-04-28T13:04:34.325Z,13.6
2023-04-28T13:05:37.078Z,13.7
2023-04-28T13:06:38.838Z,13.9
2023-04-28T13:07:40.525Z,13.9
2023-04-28T13:08:42.506Z,14
2023-04-28T13:09:44.989Z,13.9
2023-04-28T13:10:48.072Z,13.8
2023-04-28T13:11:49.926Z,14
2023-04-28T13:12:51.862Z,13.9
2023-04-28T13:13:53.631Z,13.9
2023-04-28T13:14:55.449Z,13.9
2023-04-28T13:15:57.312Z,14
2023-04-28T13:16:59.175Z,14
2023-04-28T13:18:01.165Z,14
2023-04-28T13:19:03.368Z,14.2
2023-04-28T13:20:05.254Z,14.2
2023-04-28T13:21:07.372Z,14.1
2023-04-28T13:22:09.191Z,14.2
2023-04-28T13:23:10.977Z,14.3
2023-04-28T13:24:12.816Z,14.2
2023-04-28T13:25:14.686Z,14.1
2023-04-28T13:26:16.318Z,14.3
2023-04-28T13:27:18.072Z,14.3
2023-04-28T13:28:20.025Z,14.2
2023-04-28T13:29:21.899Z,14.4
2023-04-28T13:30:23.728Z,14.3
2023-04-28T13:31:25.696Z,14.3
2023-04-28T13:32:27.660Z,14.3
2023-04-28T13:33:29.877Z,14.2
2023-04-28T13:34:31.746Z,14.2
2023-04-28T13:35:33.890Z,14.2
2023-04-28T13:36:35.711Z,14.1
2023-04-28T13:37:37.701Z,14.2
2023-04-28T13:38:39.458Z,14.2
2023-04-28T13:39:41.796Z,14.1
2023-04-28T13:40:43.659Z,14.1
2023-04-28T13:41:45.406Z,14.1
2023-04-28T13:42:47.252Z,14.1
2023-04-28T13:43:48.977Z,14.1
2023-04-28T13:44:50.619Z,14.1
2023-04-28T13:45:52.504Z,14.3
2023-04-28T13:46:54.456Z,14.1
2023-04-28T13:47:56.318Z,14.2
2023-04-28T13:48:58.213Z,14.4
2023-04-28T13:50:00.211Z,14.3
2023-04-28T13:51:02.053Z,14.4
2023-04-28T13:52:04.015Z,14.4